Kipnuk Information

FAA: IIK - ICAO: PAKI

Kipnuk (Airport) Location

State Alaska
County Bethel
City Kipnuk
Kipnuk (Airport) is 0 miles southeast of Kipnuk, AK.
Latitude 59-55-53.8000N
Longitude 164-01-41.2000W
Elevation 19ft

Kipnuk METARs

METAR PAKI 190856Z AUTO 01003KT CLR 04/04 A3032 RMK AO2 SLP272 T00440039 400501011 51007 PWINO $
Altimeter 30.32"
Temperature 4.4°C (39.9°F)
Wind 10° at 3KT
Clouds Skies are clear.
Visibility mi
Time observed: 2022-05-19T08:56:00Z

Kipnuk (Airport) Details

Status Operational
Activation August 1973
Ownership Public
Usage Public
Chart BETHEL
ATC on-site No
Beacon schedule N/A
Beacon color N/A

Kipnuk (Airport) Contacts

Owner ALASKA DOT&PF CENTRAL REGION
Owner address PO BOX 196900, ANCHORAGE, AK 99519-6900
Owner phone 907-269-0747
Manager LAWRENCE DAVIS
Manager address BOX 505, BETHEL, AK 99559
Manager phone (907) 543-2498

Kipnuk Radio Frequencies

Kipnuk (Airport) Radio Frequencies

UNICOM N/A
Common traffic advisory frequency (CTAF) 122.7